sensor_id;sensor_type;location;lat;lon;timestamp;P1;durP1;ratioP1;P2;durP2;ratioP2
12407;SDS011;6268;48.188;17.134;2022-12-29T00:01:52;10.87;;;8.60;;
12407;SDS011;6268;48.188;17.134;2022-12-29T00:04:21;10.80;;;8.90;;
12407;SDS011;6268;48.188;17.134;2022-12-29T00:06:51;11.07;;;8.73;;
12407;SDS011;6268;48.188;17.134;2022-12-29T00:09:22;11.77;;;9.53;;
12407;SDS011;6268;48.188;17.134;2022-12-29T00:11:50;13.47;;;9.33;;
12407;SDS011;6268;48.188;17.134;2022-12-29T00:14:19;14.43;;;9.00;;
12407;SDS011;6268;48.188;17.134;2022-12-29T00:17:06;13.93;;;9.83;;
12407;SDS011;6268;48.188;17.134;2022-12-29T00:19:35;12.47;;;9.30;;
12407;SDS011;6268;48.188;17.134;2022-12-29T00:22:21;10.47;;;8.90;;
12407;SDS011;6268;48.188;17.134;2022-12-29T00:25:10;11.23;;;9.10;;
12407;SDS011;6268;48.188;17.134;2022-12-29T00:27:57;12.53;;;8.10;;
12407;SDS011;6268;48.188;17.134;2022-12-29T00:30:44;11.20;;;8.67;;
12407;SDS011;6268;48.188;17.134;2022-12-29T00:33:31;13.53;;;8.67;;
12407;SDS011;6268;48.188;17.134;2022-12-29T00:36:19;12.33;;;8.73;;
12407;SDS011;6268;48.188;17.134;2022-12-29T00:38:55;9.97;;;7.73;;
12407;SDS011;6268;48.188;17.134;2022-12-29T00:41:46;9.97;;;7.50;;
12407;SDS011;6268;48.188;17.134;2022-12-29T00:44:33;9.40;;;8.40;;
12407;SDS011;6268;48.188;17.134;2022-12-29T00:47:02;11.30;;;8.37;;
12407;SDS011;6268;48.188;17.134;2022-12-29T00:49:31;10.87;;;8.80;;
12407;SDS011;6268;48.188;17.134;2022-12-29T00:52:00;12.37;;;8.10;;
12407;SDS011;6268;48.188;17.134;2022-12-29T00:54:33;9.57;;;8.07;;
12407;SDS011;6268;48.188;17.134;2022-12-29T00:57:06;11.43;;;8.53;;
12407;SDS011;6268;48.188;17.134;2022-12-29T00:59:37;10.53;;;8.53;;
12407;SDS011;6268;48.188;17.134;2022-12-29T01:02:07;9.70;;;8.40;;
12407;SDS011;6268;48.188;17.134;2022-12-29T01:04:37;11.03;;;8.73;;
12407;SDS011;6268;48.188;17.134;2022-12-29T01:07:06;10.97;;;8.60;;
12407;SDS011;6268;48.188;17.134;2022-12-29T01:09:35;9.70;;;8.53;;
12407;SDS011;6268;48.188;17.134;2022-12-29T01:12:23;10.37;;;7.67;;
12407;SDS011;6268;48.188;17.134;2022-12-29T01:15:06;10.63;;;7.87;;
12407;SDS011;6268;48.188;17.134;2022-12-29T01:17:38;11.73;;;8.60;;
12407;SDS011;6268;48.188;17.134;2022-12-29T01:20:07;9.93;;;8.13;;
12407;SDS011;6268;48.188;17.134;2022-12-29T01:22:37;9.90;;;8.17;;
12407;SDS011;6268;48.188;17.134;2022-12-29T01:25:08;11.33;;;8.33;;
12407;SDS011;6268;48.188;17.134;2022-12-29T01:27:39;9.43;;;8.00;;
12407;SDS011;6268;48.188;17.134;2022-12-29T01:30:08;9.63;;;8.03;;
12407;SDS011;6268;48.188;17.134;2022-12-29T01:32:38;10.53;;;8.00;;
12407;SDS011;6268;48.188;17.134;2022-12-29T01:35:06;10.10;;;8.40;;
12407;SDS011;6268;48.188;17.134;2022-12-29T01:37:37;12.87;;;8.83;;
12407;SDS011;6268;48.188;17.134;2022-12-29T01:40:06;10.57;;;8.63;;
12407;SDS011;6268;48.188;17.134;2022-12-29T01:42:36;11.27;;;8.67;;
12407;SDS011;6268;48.188;17.134;2022-12-29T01:45:08;9.43;;;7.80;;
12407;SDS011;6268;48.188;17.134;2022-12-29T01:47:40;12.53;;;8.70;;
12407;SDS011;6268;48.188;17.134;2022-12-29T01:50:14;14.77;;;9.40;;
12407;SDS011;6268;48.188;17.134;2022-12-29T01:52:50;10.27;;;8.67;;
12407;SDS011;6268;48.188;17.134;2022-12-29T01:55:28;12.27;;;9.30;;
12407;SDS011;6268;48.188;17.134;2022-12-29T01:58:05;12.73;;;9.10;;
12407;SDS011;6268;48.188;17.134;2022-12-29T02:00:36;10.93;;;9.00;;
12407;SDS011;6268;48.188;17.134;2022-12-29T02:03:05;11.47;;;8.50;;
12407;SDS011;6268;48.188;17.134;2022-12-29T02:05:37;15.70;;;9.67;;
12407;SDS011;6268;48.188;17.134;2022-12-29T02:08:13;11.37;;;8.87;;
12407;SDS011;6268;48.188;17.134;2022-12-29T02:10:42;10.77;;;8.17;;
12407;SDS011;6268;48.188;17.134;2022-12-29T02:13:16;10.10;;;8.40;;
12407;SDS011;6268;48.188;17.134;2022-12-29T02:15:48;12.87;;;9.57;;
12407;SDS011;6268;48.188;17.134;2022-12-29T02:18:32;13.60;;;8.90;;
12407;SDS011;6268;48.188;17.134;2022-12-29T02:27:51;12.13;;;9.27;;
12407;SDS011;6268;48.188;17.134;2022-12-29T02:30:44;13.73;;;9.30;;
12407;SDS011;6268;48.188;17.134;2022-12-29T02:33:30;13.23;;;9.83;;
12407;SDS011;6268;48.188;17.134;2022-12-29T02:36:19;12.67;;;9.93;;
12407;SDS011;6268;48.188;17.134;2022-12-29T02:39:02;13.53;;;9.37;;
12407;SDS011;6268;48.188;17.134;2022-12-29T02:41:42;14.37;;;10.43;;
12407;SDS011;6268;48.188;17.134;2022-12-29T02:44:27;13.60;;;9.47;;
12407;SDS011;6268;48.188;17.134;2022-12-29T02:47:11;12.63;;;10.03;;
12407;SDS011;6268;48.188;17.134;2022-12-29T02:49:49;14.00;;;9.97;;
12407;SDS011;6268;48.188;17.134;2022-12-29T02:52:27;15.80;;;10.53;;
12407;SDS011;6268;48.188;17.134;2022-12-29T02:55:03;11.20;;;9.50;;
12407;SDS011;6268;48.188;17.134;2022-12-29T02:57:34;14.73;;;9.60;;
12407;SDS011;6268;48.188;17.134;2022-12-29T03:00:04;14.00;;;10.03;;
12407;SDS011;6268;48.188;17.134;2022-12-29T03:05:42;13.73;;;9.77;;
12407;SDS011;6268;48.188;17.134;2022-12-29T03:08:40;12.40;;;9.93;;
12407;SDS011;6268;48.188;17.134;2022-12-29T03:11:20;15.63;;;10.67;;
12407;SDS011;6268;48.188;17.134;2022-12-29T03:14:18;14.77;;;10.67;;
12407;SDS011;6268;48.188;17.134;2022-12-29T03:17:19;15.47;;;10.67;;
12407;SDS011;6268;48.188;17.134;2022-12-29T03:19:59;13.63;;;10.53;;
12407;SDS011;6268;48.188;17.134;2022-12-29T03:22:36;11.93;;;10.17;;
12407;SDS011;6268;48.188;17.134;2022-12-29T03:25:13;14.47;;;11.33;;
12407;SDS011;6268;48.188;17.134;2022-12-29T03:27:49;16.07;;;11.10;;
12407;SDS011;6268;48.188;17.134;2022-12-29T03:30:23;15.07;;;10.83;;
12407;SDS011;6268;48.188;17.134;2022-12-29T03:32:56;13.83;;;10.73;;
12407;SDS011;6268;48.188;17.134;2022-12-29T03:35:32;15.57;;;10.27;;
12407;SDS011;6268;48.188;17.134;2022-12-29T03:38:06;13.80;;;10.73;;
12407;SDS011;6268;48.188;17.134;2022-12-29T03:40:45;17.57;;;11.47;;
12407;SDS011;6268;48.188;17.134;2022-12-29T03:43:18;14.53;;;11.23;;
12407;SDS011;6268;48.188;17.134;2022-12-29T03:45:48;14.93;;;11.37;;
12407;SDS011;6268;48.188;17.134;2022-12-29T03:48:16;15.13;;;11.80;;
12407;SDS011;6268;48.188;17.134;2022-12-29T03:50:47;17.27;;;11.73;;
12407;SDS011;6268;48.188;17.134;2022-12-29T03:53:16;15.50;;;10.93;;
12407;SDS011;6268;48.188;17.134;2022-12-29T03:55:45;15.77;;;11.17;;
12407;SDS011;6268;48.188;17.134;2022-12-29T03:58:14;16.57;;;11.93;;
12407;SDS011;6268;48.188;17.134;2022-12-29T04:00:43;19.20;;;12.63;;
12407;SDS011;6268;48.188;17.134;2022-12-29T04:03:12;13.93;;;11.20;;
12407;SDS011;6268;48.188;17.134;2022-12-29T04:05:41;15.30;;;11.83;;
12407;SDS011;6268;48.188;17.134;2022-12-29T04:08:11;14.50;;;11.37;;
12407;SDS011;6268;48.188;17.134;2022-12-29T04:10:40;13.57;;;10.87;;
12407;SDS011;6268;48.188;17.134;2022-12-29T04:13:09;16.90;;;12.63;;
12407;SDS011;6268;48.188;17.134;2022-12-29T04:15:37;17.63;;;11.73;;
12407;SDS011;6268;48.188;17.134;2022-12-29T04:18:08;15.23;;;12.00;;
12407;SDS011;6268;48.188;17.134;2022-12-29T04:20:36;13.07;;;11.53;;
12407;SDS011;6268;48.188;17.134;2022-12-29T04:23:24;16.03;;;12.37;;
12407;SDS011;6268;48.188;17.134;2022-12-29T04:25:54;16.00;;;12.10;;
12407;SDS011;6268;48.188;17.134;2022-12-29T04:28:23;15.07;;;11.40;;
12407;SDS011;6268;48.188;17.134;2022-12-29T04:30:52;15.87;;;13.13;;
12407;SDS011;6268;48.188;17.134;2022-12-29T04:33:22;17.20;;;12.50;;
12407;SDS011;6268;48.188;17.134;2022-12-29T04:35:51;15.47;;;12.17;;
12407;SDS011;6268;48.188;17.134;2022-12-29T04:38:20;15.77;;;12.27;;
12407;SDS011;6268;48.188;17.134;2022-12-29T04:40:52;18.67;;;12.83;;
12407;SDS011;6268;48.188;17.134;2022-12-29T04:43:21;18.00;;;13.03;;
12407;SDS011;6268;48.188;17.134;2022-12-29T04:45:50;16.67;;;13.37;;
12407;SDS011;6268;48.188;17.134;2022-12-29T04:48:19;17.20;;;13.20;;
12407;SDS011;6268;48.188;17.134;2022-12-29T04:50:48;13.00;;;11.53;;
12407;SDS011;6268;48.188;17.134;2022-12-29T04:53:17;17.43;;;13.10;;
12407;SDS011;6268;48.188;17.134;2022-12-29T04:55:48;17.63;;;12.67;;
12407;SDS011;6268;48.188;17.134;2022-12-29T04:58:20;19.17;;;13.13;;
12407;SDS011;6268;48.188;17.134;2022-12-29T05:00:49;19.33;;;13.80;;
12407;SDS011;6268;48.188;17.134;2022-12-29T05:03:19;17.80;;;12.83;;
12407;SDS011;6268;48.188;17.134;2022-12-29T05:05:48;17.13;;;12.73;;
12407;SDS011;6268;48.188;17.134;2022-12-29T05:08:17;16.47;;;13.20;;
12407;SDS011;6268;48.188;17.134;2022-12-29T05:10:53;19.40;;;13.23;;
12407;SDS011;6268;48.188;17.134;2022-12-29T05:13:23;16.30;;;12.73;;
12407;SDS011;6268;48.188;17.134;2022-12-29T05:15:52;17.53;;;13.70;;
12407;SDS011;6268;48.188;17.134;2022-12-29T05:18:21;19.40;;;12.77;;
12407;SDS011;6268;48.188;17.134;2022-12-29T05:20:50;15.50;;;13.20;;
12407;SDS011;6268;48.188;17.134;2022-12-29T05:23:19;16.47;;;13.27;;
12407;SDS011;6268;48.188;17.134;2022-12-29T05:25:48;15.03;;;12.53;;
12407;SDS011;6268;48.188;17.134;2022-12-29T05:28:17;16.33;;;13.17;;
12407;SDS011;6268;48.188;17.134;2022-12-29T05:30:49;18.23;;;13.57;;
12407;SDS011;6268;48.188;17.134;2022-12-29T05:33:18;17.20;;;12.80;;
12407;SDS011;6268;48.188;17.134;2022-12-29T05:35:48;20.57;;;12.97;;
12407;SDS011;6268;48.188;17.134;2022-12-29T05:38:17;16.53;;;12.80;;
12407;SDS011;6268;48.188;17.134;2022-12-29T05:40:45;18.03;;;13.50;;
12407;SDS011;6268;48.188;17.134;2022-12-29T05:43:14;17.77;;;12.90;;
12407;SDS011;6268;48.188;17.134;2022-12-29T05:45:44;19.23;;;13.70;;
12407;SDS011;6268;48.188;17.134;2022-12-29T05:48:17;14.70;;;13.07;;
12407;SDS011;6268;48.188;17.134;2022-12-29T05:50:46;17.80;;;14.97;;
12407;SDS011;6268;48.188;17.134;2022-12-29T05:53:16;18.97;;;14.33;;
12407;SDS011;6268;48.188;17.134;2022-12-29T05:55:46;15.60;;;13.00;;
12407;SDS011;6268;48.188;17.134;2022-12-29T05:58:15;18.70;;;13.50;;
12407;SDS011;6268;48.188;17.134;2022-12-29T06:00:45;16.70;;;12.23;;
12407;SDS011;6268;48.188;17.134;2022-12-29T06:03:15;19.37;;;13.73;;
12407;SDS011;6268;48.188;17.134;2022-12-29T06:05:44;16.00;;;13.07;;
12407;SDS011;6268;48.188;17.134;2022-12-29T06:08:13;18.03;;;13.70;;
12407;SDS011;6268;48.188;17.134;2022-12-29T06:10:42;18.27;;;13.30;;
12407;SDS011;6268;48.188;17.134;2022-12-29T06:13:11;19.10;;;13.90;;
12407;SDS011;6268;48.188;17.134;2022-12-29T06:15:39;19.57;;;14.77;;
12407;SDS011;6268;48.188;17.134;2022-12-29T06:18:08;17.97;;;13.77;;
12407;SDS011;6268;48.188;17.134;2022-12-29T06:20:46;16.87;;;13.97;;
12407;SDS011;6268;48.188;17.134;2022-12-29T06:23:16;17.60;;;13.83;;
12407;SDS011;6268;48.188;17.134;2022-12-29T06:25:46;21.20;;;14.50;;
12407;SDS011;6268;48.188;17.134;2022-12-29T06:28:16;17.70;;;13.53;;
12407;SDS011;6268;48.188;17.134;2022-12-29T06:30:45;18.50;;;14.07;;
12407;SDS011;6268;48.188;17.134;2022-12-29T06:33:15;19.07;;;13.80;;
12407;SDS011;6268;48.188;17.134;2022-12-29T06:35:44;18.67;;;13.87;;
12407;SDS011;6268;48.188;17.134;2022-12-29T06:38:14;27.80;;;18.07;;
12407;SDS011;6268;48.188;17.134;2022-12-29T06:40:43;27.60;;;18.67;;
12407;SDS011;6268;48.188;17.134;2022-12-29T06:43:12;21.60;;;14.60;;
12407;SDS011;6268;48.188;17.134;2022-12-29T06:45:41;29.80;;;22.20;;
12407;SDS011;6268;48.188;17.134;2022-12-29T06:48:10;87.97;;;59.73;;
12407;SDS011;6268;48.188;17.134;2022-12-29T06:50:39;42.83;;;31.23;;
12407;SDS011;6268;48.188;17.134;2022-12-29T06:53:10;70.30;;;45.63;;
12407;SDS011;6268;48.188;17.134;2022-12-29T06:55:39;147.83;;;90.17;;
12407;SDS011;6268;48.188;17.134;2022-12-29T06:58:10;68.23;;;43.43;;
12407;SDS011;6268;48.188;17.134;2022-12-29T07:00:38;36.17;;;26.27;;
12407;SDS011;6268;48.188;17.134;2022-12-29T07:03:07;47.43;;;31.53;;
12407;SDS011;6268;48.188;17.134;2022-12-29T07:05:36;20.23;;;15.70;;
12407;SDS011;6268;48.188;17.134;2022-12-29T07:08:05;25.60;;;17.37;;
12407;SDS011;6268;48.188;17.134;2022-12-29T07:10:35;21.97;;;15.90;;
12407;SDS011;6268;48.188;17.134;2022-12-29T07:13:04;44.47;;;30.10;;
12407;SDS011;6268;48.188;17.134;2022-12-29T07:15:34;19.20;;;14.27;;
12407;SDS011;6268;48.188;17.134;2022-12-29T07:18:04;22.90;;;17.17;;
12407;SDS011;6268;48.188;17.134;2022-12-29T07:20:33;19.50;;;14.50;;
12407;SDS011;6268;48.188;17.134;2022-12-29T07:23:01;18.33;;;14.37;;
12407;SDS011;6268;48.188;17.134;2022-12-29T07:25:30;18.70;;;14.73;;
12407;SDS011;6268;48.188;17.134;2022-12-29T07:28:03;16.73;;;14.10;;
12407;SDS011;6268;48.188;17.134;2022-12-29T07:30:32;21.60;;;15.13;;
12407;SDS011;6268;48.188;17.134;2022-12-29T07:33:04;19.53;;;15.00;;
12407;SDS011;6268;48.188;17.134;2022-12-29T07:35:33;21.07;;;15.63;;
12407;SDS011;6268;48.188;17.134;2022-12-29T07:38:02;18.57;;;14.47;;
12407;SDS011;6268;48.188;17.134;2022-12-29T07:40:31;20.80;;;15.57;;
12407;SDS011;6268;48.188;17.134;2022-12-29T07:43:00;20.67;;;15.53;;
12407;SDS011;6268;48.188;17.134;2022-12-29T07:45:30;20.17;;;15.00;;
12407;SDS011;6268;48.188;17.134;2022-12-29T07:47:59;18.03;;;14.17;;
12407;SDS011;6268;48.188;17.134;2022-12-29T07:50:29;17.63;;;14.70;;
12407;SDS011;6268;48.188;17.134;2022-12-29T07:52:58;18.23;;;14.37;;
12407;SDS011;6268;48.188;17.134;2022-12-29T07:55:26;17.90;;;15.33;;
12407;SDS011;6268;48.188;17.134;2022-12-29T07:57:55;20.53;;;14.63;;
12407;SDS011;6268;48.188;17.134;2022-12-29T08:00:24;51.87;;;32.50;;
12407;SDS011;6268;48.188;17.134;2022-12-29T08:02:55;29.23;;;19.77;;
12407;SDS011;6268;48.188;17.134;2022-12-29T08:05:24;93.30;;;53.07;;
12407;SDS011;6268;48.188;17.134;2022-12-29T08:07:52;31.90;;;21.63;;
12407;SDS011;6268;48.188;17.134;2022-12-29T08:10:21;23.40;;;16.27;;
12407;SDS011;6268;48.188;17.134;2022-12-29T08:12:51;21.37;;;15.17;;
12407;SDS011;6268;48.188;17.134;2022-12-29T08:15:20;21.43;;;16.60;;
12407;SDS011;6268;48.188;17.134;2022-12-29T08:17:59;23.33;;;15.03;;
12407;SDS011;6268;48.188;17.134;2022-12-29T08:20:28;19.77;;;14.50;;
12407;SDS011;6268;48.188;17.134;2022-12-29T08:22:57;18.70;;;13.97;;
12407;SDS011;6268;48.188;17.134;2022-12-29T08:25:26;50.43;;;31.33;;
12407;SDS011;6268;48.188;17.134;2022-12-29T08:27:55;27.77;;;18.47;;
12407;SDS011;6268;48.188;17.134;2022-12-29T08:30:24;23.73;;;17.47;;
12407;SDS011;6268;48.188;17.134;2022-12-29T08:32:52;19.93;;;14.97;;
12407;SDS011;6268;48.188;17.134;2022-12-29T08:35:23;21.00;;;16.20;;
12407;SDS011;6268;48.188;17.134;2022-12-29T08:37:52;22.63;;;14.80;;
12407;SDS011;6268;48.188;17.134;2022-12-29T08:40:20;20.83;;;14.90;;
12407;SDS011;6268;48.188;17.134;2022-12-29T08:42:49;17.53;;;14.03;;
12407;SDS011;6268;48.188;17.134;2022-12-29T08:45:18;23.03;;;15.17;;
12407;SDS011;6268;48.188;17.134;2022-12-29T08:47:47;16.73;;;13.63;;
12407;SDS011;6268;48.188;17.134;2022-12-29T08:50:16;18.47;;;14.23;;
12407;SDS011;6268;48.188;17.134;2022-12-29T08:52:46;18.33;;;14.57;;
12407;SDS011;6268;48.188;17.134;2022-12-29T08:55:15;19.67;;;14.80;;
12407;SDS011;6268;48.188;17.134;2022-12-29T08:57:44;20.20;;;15.10;;
12407;SDS011;6268;48.188;17.134;2022-12-29T09:00:13;19.50;;;14.57;;
12407;SDS011;6268;48.188;17.134;2022-12-29T09:02:43;19.47;;;15.00;;
12407;SDS011;6268;48.188;17.134;2022-12-29T09:05:12;19.43;;;14.63;;
12407;SDS011;6268;48.188;17.134;2022-12-29T09:07:41;22.03;;;15.10;;
12407;SDS011;6268;48.188;17.134;2022-12-29T09:10:11;16.97;;;14.20;;
12407;SDS011;6268;48.188;17.134;2022-12-29T09:12:40;19.20;;;14.80;;
12407;SDS011;6268;48.188;17.134;2022-12-29T09:15:09;20.50;;;14.17;;
12407;SDS011;6268;48.188;17.134;2022-12-29T09:17:39;17.53;;;14.57;;
12407;SDS011;6268;48.188;17.134;2022-12-29T09:20:14;18.67;;;14.23;;
12407;SDS011;6268;48.188;17.134;2022-12-29T09:22:46;17.90;;;14.37;;
12407;SDS011;6268;48.188;17.134;2022-12-29T09:25:17;17.50;;;14.53;;
12407;SDS011;6268;48.188;17.134;2022-12-29T09:27:47;21.40;;;14.97;;
12407;SDS011;6268;48.188;17.134;2022-12-29T09:30:16;25.67;;;18.97;;
12407;SDS011;6268;48.188;17.134;2022-12-29T09:32:45;37.27;;;25.17;;
12407;SDS011;6268;48.188;17.134;2022-12-29T09:35:20;16.87;;;14.03;;
12407;SDS011;6268;48.188;17.134;2022-12-29T09:37:49;20.43;;;15.40;;
12407;SDS011;6268;48.188;17.134;2022-12-29T09:40:24;18.13;;;13.60;;
12407;SDS011;6268;48.188;17.134;2022-12-29T09:43:02;19.87;;;15.37;;
12407;SDS011;6268;48.188;17.134;2022-12-29T09:45:47;20.33;;;15.87;;
12407;SDS011;6268;48.188;17.134;2022-12-29T09:48:27;20.20;;;14.73;;
12407;SDS011;6268;48.188;17.134;2022-12-29T09:51:02;19.77;;;14.53;;
12407;SDS011;6268;48.188;17.134;2022-12-29T09:53:40;20.00;;;15.07;;
12407;SDS011;6268;48.188;17.134;2022-12-29T09:56:15;18.73;;;14.70;;
12407;SDS011;6268;48.188;17.134;2022-12-29T09:58:48;21.00;;;14.93;;
12407;SDS011;6268;48.188;17.134;2022-12-29T10:01:27;22.63;;;15.93;;
12407;SDS011;6268;48.188;17.134;2022-12-29T10:04:03;19.43;;;15.00;;
12407;SDS011;6268;48.188;17.134;2022-12-29T10:06:36;20.17;;;15.27;;
12407;SDS011;6268;48.188;17.134;2022-12-29T10:09:36;19.67;;;14.93;;
12407;SDS011;6268;48.188;17.134;2022-12-29T10:12:23;22.47;;;15.97;;
12407;SDS011;6268;48.188;17.134;2022-12-29T10:15:02;22.13;;;16.57;;
12407;SDS011;6268;48.188;17.134;2022-12-29T10:17:43;20.23;;;15.87;;
12407;SDS011;6268;48.188;17.134;2022-12-29T10:20:26;22.30;;;15.37;;
12407;SDS011;6268;48.188;17.134;2022-12-29T10:23:04;21.33;;;16.27;;
12407;SDS011;6268;48.188;17.134;2022-12-29T10:25:54;19.67;;;15.23;;
12407;SDS011;6268;48.188;17.134;2022-12-29T10:28:30;21.40;;;16.30;;
12407;SDS011;6268;48.188;17.134;2022-12-29T10:31:08;21.03;;;15.97;;
12407;SDS011;6268;48.188;17.134;2022-12-29T10:33:48;18.80;;;15.87;;
12407;SDS011;6268;48.188;17.134;2022-12-29T10:36:25;21.97;;;16.47;;
12407;SDS011;6268;48.188;17.134;2022-12-29T10:39:02;20.83;;;15.87;;
12407;SDS011;6268;48.188;17.134;2022-12-29T10:41:44;22.27;;;15.87;;
12407;SDS011;6268;48.188;17.134;2022-12-29T10:44:20;24.07;;;16.83;;
12407;SDS011;6268;48.188;17.134;2022-12-29T10:46:55;20.57;;;16.33;;
12407;SDS011;6268;48.188;17.134;2022-12-29T10:49:31;21.33;;;17.37;;
12407;SDS011;6268;48.188;17.134;2022-12-29T10:52:05;21.77;;;16.63;;
12407;SDS011;6268;48.188;17.134;2022-12-29T10:54:37;25.67;;;19.77;;
12407;SDS011;6268;48.188;17.134;2022-12-29T10:57:15;24.93;;;19.77;;
12407;SDS011;6268;48.188;17.134;2022-12-29T10:59:55;24.37;;;17.50;;
12407;SDS011;6268;48.188;17.134;2022-12-29T11:02:27;21.70;;;18.17;;
12407;SDS011;6268;48.188;17.134;2022-12-29T11:05:31;20.40;;;15.93;;
12407;SDS011;6268;48.188;17.134;2022-12-29T11:08:09;28.27;;;17.77;;
12407;SDS011;6268;48.188;17.134;2022-12-29T11:10:42;22.47;;;17.67;;
12407;SDS011;6268;48.188;17.134;2022-12-29T11:13:13;23.53;;;17.93;;
12407;SDS011;6268;48.188;17.134;2022-12-29T11:15:46;19.80;;;16.40;;
12407;SDS011;6268;48.188;17.134;2022-12-29T11:18:17;21.73;;;16.33;;
12407;SDS011;6268;48.188;17.134;2022-12-29T11:20:50;21.97;;;17.10;;
12407;SDS011;6268;48.188;17.134;2022-12-29T11:23:23;21.17;;;16.90;;
12407;SDS011;6268;48.188;17.134;2022-12-29T11:26:13;23.20;;;17.80;;
12407;SDS011;6268;48.188;17.134;2022-12-29T11:28:47;25.73;;;18.10;;
12407;SDS011;6268;48.188;17.134;2022-12-29T11:31:53;22.03;;;16.93;;
12407;SDS011;6268;48.188;17.134;2022-12-29T11:34:25;24.87;;;18.60;;
12407;SDS011;6268;48.188;17.134;2022-12-29T11:37:00;22.13;;;17.77;;
12407;SDS011;6268;48.188;17.134;2022-12-29T11:39:34;21.87;;;17.60;;
12407;SDS011;6268;48.188;17.134;2022-12-29T11:42:12;23.90;;;18.67;;
12407;SDS011;6268;48.188;17.134;2022-12-29T11:44:45;22.77;;;17.53;;
12407;SDS011;6268;48.188;17.134;2022-12-29T11:47:29;21.57;;;18.07;;
12407;SDS011;6268;48.188;17.134;2022-12-29T11:50:00;23.20;;;17.70;;
12407;SDS011;6268;48.188;17.134;2022-12-29T11:52:35;37.70;;;32.97;;
12407;SDS011;6268;48.188;17.134;2022-12-29T11:55:07;25.63;;;19.53;;
12407;SDS011;6268;48.188;17.134;2022-12-29T11:57:48;19.70;;;17.63;;
12407;SDS011;6268;48.188;17.134;2022-12-29T12:00:20;24.13;;;18.17;;
12407;SDS011;6268;48.188;17.134;2022-12-29T12:02:54;24.27;;;19.00;;
12407;SDS011;6268;48.188;17.134;2022-12-29T12:05:30;22.30;;;17.90;;
12407;SDS011;6268;48.188;17.134;2022-12-29T12:08:09;27.37;;;18.80;;
12407;SDS011;6268;48.188;17.134;2022-12-29T12:10:48;24.43;;;18.10;;
12407;SDS011;6268;48.188;17.134;2022-12-29T12:13:25;24.10;;;19.07;;
12407;SDS011;6268;48.188;17.134;2022-12-29T12:16:02;20.77;;;18.00;;
12407;SDS011;6268;48.188;17.134;2022-12-29T12:18:40;22.90;;;18.53;;
12407;SDS011;6268;48.188;17.134;2022-12-29T12:21:19;23.23;;;19.70;;
12407;SDS011;6268;48.188;17.134;2022-12-29T12:27:07;23.23;;;19.93;;
12407;SDS011;6268;48.188;17.134;2022-12-29T12:29:43;21.33;;;19.03;;
12407;SDS011;6268;48.188;17.134;2022-12-29T12:32:23;23.93;;;19.37;;
12407;SDS011;6268;48.188;17.134;2022-12-29T12:35:12;20.97;;;18.30;;
12407;SDS011;6268;48.188;17.134;2022-12-29T12:37:52;24.30;;;19.37;;
12407;SDS011;6268;48.188;17.134;2022-12-29T12:40:44;27.80;;;23.43;;
12407;SDS011;6268;48.188;17.134;2022-12-29T12:43:39;25.90;;;18.93;;
12407;SDS011;6268;48.188;17.134;2022-12-29T12:49:57;21.60;;;18.63;;
12407;SDS011;6268;48.188;17.134;2022-12-29T12:56:22;21.60;;;17.73;;
12407;SDS011;6268;48.188;17.134;2022-12-29T12:59:15;19.73;;;17.53;;
12407;SDS011;6268;48.188;17.134;2022-12-29T13:02:01;23.37;;;19.43;;
12407;SDS011;6268;48.188;17.134;2022-12-29T13:04:48;23.33;;;19.10;;
12407;SDS011;6268;48.188;17.134;2022-12-29T13:07:57;23.57;;;19.07;;
12407;SDS011;6268;48.188;17.134;2022-12-29T13:10:50;24.93;;;19.17;;
12407;SDS011;6268;48.188;17.134;2022-12-29T13:13:44;20.97;;;18.77;;
12407;SDS011;6268;48.188;17.134;2022-12-29T13:16:34;23.20;;;19.57;;
12407;SDS011;6268;48.188;17.134;2022-12-29T13:19:14;24.30;;;19.70;;
12407;SDS011;6268;48.188;17.134;2022-12-29T13:21:57;22.77;;;19.43;;
12407;SDS011;6268;48.188;17.134;2022-12-29T13:24:41;22.90;;;19.00;;
12407;SDS011;6268;48.188;17.134;2022-12-29T13:27:27;25.87;;;20.20;;
12407;SDS011;6268;48.188;17.134;2022-12-29T13:30:10;27.37;;;21.23;;
12407;SDS011;6268;48.188;17.134;2022-12-29T13:33:01;20.33;;;18.13;;
12407;SDS011;6268;48.188;17.134;2022-12-29T13:35:55;22.20;;;19.40;;
12407;SDS011;6268;48.188;17.134;2022-12-29T13:38:30;21.50;;;18.97;;
12407;SDS011;6268;48.188;17.134;2022-12-29T13:41:08;26.53;;;19.63;;
12407;SDS011;6268;48.188;17.134;2022-12-29T13:43:42;22.40;;;18.73;;
12407;SDS011;6268;48.188;17.134;2022-12-29T13:46:15;22.87;;;19.63;;
12407;SDS011;6268;48.188;17.134;2022-12-29T13:48:54;23.20;;;19.37;;
12407;SDS011;6268;48.188;17.134;2022-12-29T13:51:30;24.57;;;20.47;;
12407;SDS011;6268;48.188;17.134;2022-12-29T13:54:04;22.17;;;19.03;;
12407;SDS011;6268;48.188;17.134;2022-12-29T13:56:49;23.83;;;19.73;;
12407;SDS011;6268;48.188;17.134;2022-12-29T13:59:32;23.43;;;20.03;;
12407;SDS011;6268;48.188;17.134;2022-12-29T14:02:19;23.10;;;20.07;;
12407;SDS011;6268;48.188;17.134;2022-12-29T14:05:03;21.40;;;19.03;;
12407;SDS011;6268;48.188;17.134;2022-12-29T14:08:02;24.40;;;20.00;;
12407;SDS011;6268;48.188;17.134;2022-12-29T14:10:35;27.53;;;19.87;;
12407;SDS011;6268;48.188;17.134;2022-12-29T14:13:09;28.67;;;24.27;;
12407;SDS011;6268;48.188;17.134;2022-12-29T14:15:43;25.70;;;21.57;;
12407;SDS011;6268;48.188;17.134;2022-12-29T14:18:19;28.90;;;23.60;;
12407;SDS011;6268;48.188;17.134;2022-12-29T14:20:54;28.93;;;22.17;;
12407;SDS011;6268;48.188;17.134;2022-12-29T14:23:29;25.10;;;21.47;;
12407;SDS011;6268;48.188;17.134;2022-12-29T14:26:11;28.37;;;22.07;;
12407;SDS011;6268;48.188;17.134;2022-12-29T14:28:44;23.20;;;20.50;;
12407;SDS011;6268;48.188;17.134;2022-12-29T14:34:15;25.57;;;20.90;;
12407;SDS011;6268;48.188;17.134;2022-12-29T14:36:58;26.10;;;20.93;;
12407;SDS011;6268;48.188;17.134;2022-12-29T14:39:31;27.53;;;21.80;;
12407;SDS011;6268;48.188;17.134;2022-12-29T14:42:06;27.10;;;21.93;;
12407;SDS011;6268;48.188;17.134;2022-12-29T14:44:47;23.83;;;20.83;;
12407;SDS011;6268;48.188;17.134;2022-12-29T14:47:20;26.67;;;21.43;;
12407;SDS011;6268;48.188;17.134;2022-12-29T14:50:02;25.17;;;21.87;;
12407;SDS011;6268;48.188;17.134;2022-12-29T14:52:42;27.63;;;22.43;;
12407;SDS011;6268;48.188;17.134;2022-12-29T14:55:30;33.33;;;26.37;;
12407;SDS011;6268;48.188;17.134;2022-12-29T14:58:11;35.70;;;27.80;;
12407;SDS011;6268;48.188;17.134;2022-12-29T15:00:47;28.47;;;23.70;;
12407;SDS011;6268;48.188;17.134;2022-12-29T15:03:18;29.90;;;23.03;;
12407;SDS011;6268;48.188;17.134;2022-12-29T15:05:51;25.40;;;22.20;;
12407;SDS011;6268;48.188;17.134;2022-12-29T15:08:24;30.20;;;23.70;;
12407;SDS011;6268;48.188;17.134;2022-12-29T15:10:59;27.37;;;23.50;;
12407;SDS011;6268;48.188;17.134;2022-12-29T15:13:35;29.63;;;23.27;;
12407;SDS011;6268;48.188;17.134;2022-12-29T15:16:20;30.17;;;24.60;;
12407;SDS011;6268;48.188;17.134;2022-12-29T15:18:52;26.77;;;23.63;;
12407;SDS011;6268;48.188;17.134;2022-12-29T15:21:23;26.43;;;22.47;;
12407;SDS011;6268;48.188;17.134;2022-12-29T15:23:56;30.20;;;24.17;;
12407;SDS011;6268;48.188;17.134;2022-12-29T15:26:36;29.30;;;23.07;;
12407;SDS011;6268;48.188;17.134;2022-12-29T15:29:28;30.47;;;23.50;;
12407;SDS011;6268;48.188;17.134;2022-12-29T15:32:20;27.40;;;23.63;;